sensor_id;sensor_type;location;lat;lon;timestamp;pressure;altitude;pressure_sealevel;temperature;humidity
55077;BME280;40971;44.702;11.030;2022-11-04T00:00:50;100473.19;;;14.10;100.00
55077;BME280;40971;44.702;11.030;2022-11-04T00:03:15;100437.72;;;14.05;100.00
55077;BME280;40971;44.702;11.030;2022-11-04T00:05:40;100373.19;;;13.66;100.00
55077;BME280;40971;44.702;11.030;2022-11-04T00:08:07;100426.09;;;13.96;100.00
55077;BME280;40971;44.702;11.030;2022-11-04T00:10:55;100336.53;;;13.40;100.00
55077;BME280;40971;44.702;11.030;2022-11-04T00:13:39;100444.63;;;14.06;100.00
55077;BME280;40971;44.702;11.030;2022-11-04T00:16:05;100424.34;;;14.08;100.00
55077;BME280;40971;44.702;11.030;2022-11-04T00:18:49;100401.19;;;14.02;100.00
55077;BME280;40971;44.702;11.030;2022-11-04T00:21:14;100386.28;;;13.78;100.00
55077;BME280;40971;44.702;11.030;2022-11-04T00:23:58;100408.22;;;14.01;100.00
55077;BME280;40971;44.702;11.030;2022-11-04T00:26:42;100408.44;;;13.98;100.00
55077;BME280;40971;44.702;11.030;2022-11-04T00:29:28;100389.22;;;13.98;100.00
55077;BME280;40971;44.702;11.030;2022-11-04T00:31:53;100378.72;;;13.98;100.00
55077;BME280;40971;44.702;11.030;2022-11-04T00:34:37;100376.34;;;13.95;100.00
55077;BME280;40971;44.702;11.030;2022-11-04T00:37:03;100370.25;;;13.94;100.00
55077;BME280;40971;44.702;11.030;2022-11-04T00:39:29;100361.19;;;13.98;100.00
55077;BME280;40971;44.702;11.030;2022-11-04T00:41:54;100351.00;;;13.94;100.00
55077;BME280;40971;44.702;11.030;2022-11-04T00:44:19;100336.56;;;13.88;100.00
55077;BME280;40971;44.702;11.030;2022-11-04T00:46:45;100343.25;;;13.92;100.00
55077;BME280;40971;44.702;11.030;2022-11-04T00:49:10;100328.31;;;13.81;100.00
55077;BME280;40971;44.702;11.030;2022-11-04T00:51:38;100312.78;;;13.78;100.00
55077;BME280;40971;44.702;11.030;2022-11-04T00:54:03;100319.25;;;13.85;100.00
55077;BME280;40971;44.702;11.030;2022-11-04T00:56:30;100317.81;;;13.81;100.00
55077;BME280;40971;44.702;11.030;2022-11-04T00:58:58;100328.44;;;13.91;100.00
55077;BME280;40971;44.702;11.030;2022-11-04T01:01:24;100327.59;;;13.91;100.00
55077;BME280;40971;44.702;11.030;2022-11-04T01:03:51;100329.50;;;13.89;100.00
55077;BME280;40971;44.702;11.030;2022-11-04T01:06:21;100266.00;;;13.48;100.00
55077;BME280;40971;44.702;11.030;2022-11-04T01:08:47;100326.88;;;13.89;100.00
55077;BME280;40971;44.702;11.030;2022-11-04T01:11:13;100312.31;;;13.84;100.00
55077;BME280;40971;44.702;11.030;2022-11-04T01:13:39;100311.47;;;13.84;100.00
55077;BME280;40971;44.702;11.030;2022-11-04T01:16:08;100279.56;;;13.66;100.00
55077;BME280;40971;44.702;11.030;2022-11-04T01:18:33;100293.16;;;13.71;100.00
55077;BME280;40971;44.702;11.030;2022-11-04T01:21:00;100297.75;;;13.80;100.00
55077;BME280;40971;44.702;11.030;2022-11-04T01:23:26;100302.66;;;13.85;100.00
55077;BME280;40971;44.702;11.030;2022-11-04T01:25:54;100272.19;;;13.71;100.00
55077;BME280;40971;44.702;11.030;2022-11-04T01:28:20;100285.78;;;13.76;100.00
55077;BME280;40971;44.702;11.030;2022-11-04T01:30:45;100285.91;;;13.75;100.00
55077;BME280;40971;44.702;11.030;2022-11-04T01:33:11;100212.81;;;13.46;100.00
55077;BME280;40971;44.702;11.030;2022-11-04T01:35:37;100260.50;;;13.75;100.00
55077;BME280;40971;44.702;11.030;2022-11-04T01:38:02;100263.88;;;13.77;100.00
55077;BME280;40971;44.702;11.030;2022-11-04T01:40:28;100232.50;;;13.52;100.00
55077;BME280;40971;44.702;11.030;2022-11-04T01:42:54;100217.59;;;13.52;100.00
55077;BME280;40971;44.702;11.030;2022-11-04T01:45:21;100142.28;;;13.07;100.00
55077;BME280;40971;44.702;11.030;2022-11-04T01:47:52;100243.38;;;13.59;100.00
55077;BME280;40971;44.702;11.030;2022-11-04T01:50:25;100239.09;;;13.58;100.00
55077;BME280;40971;44.702;11.030;2022-11-04T01:53:09;100230.59;;;13.54;100.00
55077;BME280;40971;44.702;11.030;2022-11-04T01:55:40;100191.31;;;13.41;100.00
55077;BME280;40971;44.702;11.030;2022-11-04T01:58:12;100226.91;;;13.57;100.00
55077;BME280;40971;44.702;11.030;2022-11-04T02:00:41;100177.94;;;13.33;100.00
55077;BME280;40971;44.702;11.030;2022-11-04T02:03:11;100212.34;;;13.52;100.00
55077;BME280;40971;44.702;11.030;2022-11-04T02:05:38;100213.06;;;13.54;100.00
55077;BME280;40971;44.702;11.030;2022-11-04T02:08:05;100188.97;;;13.49;100.00
55077;BME280;40971;44.702;11.030;2022-11-04T02:10:32;100185.88;;;13.44;100.00
55077;BME280;40971;44.702;11.030;2022-11-04T02:13:00;100188.38;;;13.46;100.00
55077;BME280;40971;44.702;11.030;2022-11-04T02:15:41;100172.75;;;13.44;100.00
55077;BME280;40971;44.702;11.030;2022-11-04T02:26:40;100174.13;;;12.89;100.00
55077;BME280;40971;44.702;11.030;2022-11-04T02:40:21;100141.31;;;12.97;100.00
55077;BME280;40971;44.702;11.030;2022-11-04T02:45:50;100089.72;;;12.73;100.00
55077;BME280;40971;44.702;11.030;2022-11-04T02:50:55;100117.94;;;12.93;100.00
55077;BME280;40971;44.702;11.030;2022-11-04T02:53:37;100093.66;;;12.55;100.00
55077;BME280;40971;44.702;11.030;2022-11-04T02:56:05;100085.91;;;12.53;100.00
55077;BME280;40971;44.702;11.030;2022-11-04T02:58:40;100065.22;;;12.38;100.00
55077;BME280;40971;44.702;11.030;2022-11-04T03:01:08;100073.31;;;12.34;100.00
55077;BME280;40971;44.702;11.030;2022-11-04T03:03:42;100062.00;;;12.34;100.00
55077;BME280;40971;44.702;11.030;2022-11-04T03:06:13;100034.06;;;12.22;100.00
55077;BME280;40971;44.702;11.030;2022-11-04T03:08:42;99999.81;;;12.01;100.00
55077;BME280;40971;44.702;11.030;2022-11-04T03:11:15;100052.94;;;12.51;100.00
55077;BME280;40971;44.702;11.030;2022-11-04T03:16:36;100072.00;;;12.16;100.00
55077;BME280;40971;44.702;11.030;2022-11-04T03:22:16;100006.00;;;11.87;100.00
55077;BME280;40971;44.702;11.030;2022-11-04T03:24:44;100026.75;;;12.27;100.00
55077;BME280;40971;44.702;11.030;2022-11-04T03:27:34;100076.44;;;12.40;100.00
55077;BME280;40971;44.702;11.030;2022-11-04T03:35:40;100048.50;;;11.65;100.00
55077;BME280;40971;44.702;11.030;2022-11-04T03:38:05;100056.03;;;11.57;100.00
55077;BME280;40971;44.702;11.030;2022-11-04T03:40:31;100062.09;;;11.32;100.00
55077;BME280;40971;44.702;11.030;2022-11-04T03:43:14;100076.53;;;11.38;100.00
55077;BME280;40971;44.702;11.030;2022-11-04T03:45:41;100080.94;;;11.50;100.00
55077;BME280;40971;44.702;11.030;2022-11-04T03:48:08;100010.72;;;11.06;100.00
55077;BME280;40971;44.702;11.030;2022-11-04T03:50:45;100063.88;;;11.32;100.00
55077;BME280;40971;44.702;11.030;2022-11-04T03:53:21;100087.91;;;11.37;100.00
55077;BME280;40971;44.702;11.030;2022-11-04T04:06:35;100068.19;;;11.84;100.00
55077;BME280;40971;44.702;11.030;2022-11-04T04:12:11;100036.38;;;11.64;100.00
55077;BME280;40971;44.702;11.030;2022-11-04T04:14:45;100008.66;;;11.62;100.00
55077;BME280;40971;44.702;11.030;2022-11-04T04:19:50;100033.81;;;12.01;100.00
55077;BME280;40971;44.702;11.030;2022-11-04T04:22:22;100039.78;;;12.03;100.00
55077;BME280;40971;44.702;11.030;2022-11-04T04:24:52;100025.03;;;12.02;100.00
55077;BME280;40971;44.702;11.030;2022-11-04T04:27:39;100033.00;;;12.24;100.00
55077;BME280;40971;44.702;11.030;2022-11-04T04:30:08;100020.44;;;12.29;100.00
55077;BME280;40971;44.702;11.030;2022-11-04T04:32:43;100019.88;;;12.37;100.00
55077;BME280;40971;44.702;11.030;2022-11-04T04:35:09;100025.69;;;12.53;100.00
55077;BME280;40971;44.702;11.030;2022-11-04T04:37:57;100010.41;;;12.47;100.00
55077;BME280;40971;44.702;11.030;2022-11-04T04:40:50;100029.69;;;12.46;100.00
55077;BME280;40971;44.702;11.030;2022-11-04T04:43:38;100030.75;;;12.44;100.00
55077;BME280;40971;44.702;11.030;2022-11-04T04:46:27;99997.66;;;12.19;100.00
55077;BME280;40971;44.702;11.030;2022-11-04T04:48:53;100048.03;;;12.46;100.00
55077;BME280;40971;44.702;11.030;2022-11-04T04:51:19;100058.28;;;12.49;100.00
55077;BME280;40971;44.702;11.030;2022-11-04T04:53:45;100052.94;;;12.51;100.00
55077;BME280;40971;44.702;11.030;2022-11-04T04:56:10;99987.91;;;12.21;100.00
55077;BME280;40971;44.702;11.030;2022-11-04T04:58:35;100044.50;;;12.58;100.00
55077;BME280;40971;44.702;11.030;2022-11-04T05:01:02;100021.00;;;12.46;100.00
55077;BME280;40971;44.702;11.030;2022-11-04T05:03:28;100045.56;;;12.56;100.00
55077;BME280;40971;44.702;11.030;2022-11-04T05:05:53;100038.31;;;12.59;100.00
55077;BME280;40971;44.702;11.030;2022-11-04T05:08:19;100022.81;;;12.56;100.00
55077;BME280;40971;44.702;11.030;2022-11-04T05:10:44;100034.31;;;12.67;100.00
55077;BME280;40971;44.702;11.030;2022-11-04T05:13:11;100036.81;;;12.68;100.00
55077;BME280;40971;44.702;11.030;2022-11-04T05:15:56;99973.47;;;12.39;100.00
55077;BME280;40971;44.702;11.030;2022-11-04T05:18:26;100015.97;;;12.67;100.00
55077;BME280;40971;44.702;11.030;2022-11-04T05:20:52;100001.44;;;12.62;100.00
55077;BME280;40971;44.702;11.030;2022-11-04T05:23:17;99952.16;;;12.32;100.00
55077;BME280;40971;44.702;11.030;2022-11-04T05:25:43;100010.25;;;12.61;100.00
55077;BME280;40971;44.702;11.030;2022-11-04T05:28:08;100033.13;;;12.71;100.00
55077;BME280;40971;44.702;11.030;2022-11-04T05:30:34;100020.63;;;12.74;100.00
55077;BME280;40971;44.702;11.030;2022-11-04T05:32:59;99991.50;;;12.55;100.00
55077;BME280;40971;44.702;11.030;2022-11-04T05:35:26;100009.41;;;12.61;100.00
55077;BME280;40971;44.702;11.030;2022-11-04T05:37:57;100045.34;;;12.83;100.00
55077;BME280;40971;44.702;11.030;2022-11-04T05:40:24;100040.09;;;12.83;100.00
55077;BME280;40971;44.702;11.030;2022-11-04T05:42:49;100042.59;;;12.84;100.00
55077;BME280;40971;44.702;11.030;2022-11-04T05:45:15;100043.78;;;12.80;100.00
55077;BME280;40971;44.702;11.030;2022-11-04T05:47:42;100040.66;;;12.75;100.00
55077;BME280;40971;44.702;11.030;2022-11-04T05:50:07;100047.50;;;12.89;100.00
55077;BME280;40971;44.702;11.030;2022-11-04T05:52:34;100037.34;;;12.84;100.00
55077;BME280;40971;44.702;11.030;2022-11-04T05:55:00;100033.31;;;12.80;100.00
55077;BME280;40971;44.702;11.030;2022-11-04T05:57:25;100020.75;;;12.73;100.00
55077;BME280;40971;44.702;11.030;2022-11-04T05:59:50;100054.88;;;12.84;100.00
55077;BME280;40971;44.702;11.030;2022-11-04T06:02:16;100033.63;;;12.76;100.00
55077;BME280;40971;44.702;11.030;2022-11-04T06:04:51;100037.34;;;12.84;100.00
55077;BME280;40971;44.702;11.030;2022-11-04T06:07:16;100072.97;;;12.87;100.00
55077;BME280;40971;44.702;11.030;2022-11-04T06:09:41;100057.13;;;12.77;100.00
55077;BME280;40971;44.702;11.030;2022-11-04T06:12:14;100062.34;;;12.77;100.00
55077;BME280;40971;44.702;11.030;2022-11-04T06:14:41;100071.06;;;12.89;100.00
55077;BME280;40971;44.702;11.030;2022-11-04T06:17:07;100091.16;;;13.01;100.00
55077;BME280;40971;44.702;11.030;2022-11-04T06:19:35;100080.19;;;12.96;100.00
55077;BME280;40971;44.702;11.030;2022-11-04T06:22:00;100088.34;;;12.91;100.00
55077;BME280;40971;44.702;11.030;2022-11-04T06:24:25;100133.03;;;13.14;100.00
55077;BME280;40971;44.702;11.030;2022-11-04T06:26:51;100085.81;;;12.79;100.00
55077;BME280;40971;44.702;11.030;2022-11-04T06:29:16;100146.03;;;13.15;100.00
55077;BME280;40971;44.702;11.030;2022-11-04T06:31:42;100095.66;;;12.75;100.00
55077;BME280;40971;44.702;11.030;2022-11-04T06:34:07;100189.13;;;12.51;100.00
55077;BME280;40971;44.702;11.030;2022-11-04T06:36:33;100184.88;;;11.99;100.00
55077;BME280;40971;44.702;11.030;2022-11-04T06:38:58;100198.63;;;11.63;100.00
55077;BME280;40971;44.702;11.030;2022-11-04T06:41:24;100241.59;;;11.59;100.00
55077;BME280;40971;44.702;11.030;2022-11-04T06:43:49;100236.16;;;11.49;100.00
55077;BME280;40971;44.702;11.030;2022-11-04T06:48:55;100198.56;;;10.83;100.00
55077;BME280;40971;44.702;11.030;2022-11-04T06:51:23;100188.78;;;10.73;100.00
55077;BME280;40971;44.702;11.030;2022-11-04T06:53:49;100272.13;;;11.04;100.00
55077;BME280;40971;44.702;11.030;2022-11-04T06:56:15;100253.88;;;10.90;100.00
55077;BME280;40971;44.702;11.030;2022-11-04T06:58:40;100270.56;;;11.02;100.00
55077;BME280;40971;44.702;11.030;2022-11-04T07:01:06;100251.53;;;11.00;100.00
55077;BME280;40971;44.702;11.030;2022-11-04T07:03:32;100263.13;;;10.96;100.00
55077;BME280;40971;44.702;11.030;2022-11-04T07:06:04;100264.81;;;10.82;100.00
55077;BME280;40971;44.702;11.030;2022-11-04T07:08:29;100273.78;;;10.78;100.00
55077;BME280;40971;44.702;11.030;2022-11-04T07:10:55;100254.28;;;10.70;100.00
55077;BME280;40971;44.702;11.030;2022-11-04T07:13:20;100260.34;;;10.70;100.00
55077;BME280;40971;44.702;11.030;2022-11-04T07:15:55;100253.59;;;10.95;100.00
55077;BME280;40971;44.702;11.030;2022-11-04T07:18:21;100249.66;;;11.02;100.00
55077;BME280;40971;44.702;11.030;2022-11-04T07:20:46;100219.25;;;11.01;100.00
55077;BME280;40971;44.702;11.030;2022-11-04T07:23:12;100230.06;;;11.09;100.00
55077;BME280;40971;44.702;11.030;2022-11-04T07:25:37;100262.16;;;11.38;100.00
55077;BME280;40971;44.702;11.030;2022-11-04T07:28:06;100232.97;;;11.31;100.00
55077;BME280;40971;44.702;11.030;2022-11-04T07:30:31;100254.38;;;11.51;100.00
55077;BME280;40971;44.702;11.030;2022-11-04T07:33:02;100243.50;;;11.57;100.00
55077;BME280;40971;44.702;11.030;2022-11-04T07:35:27;100256.66;;;11.55;100.00
55077;BME280;40971;44.702;11.030;2022-11-04T07:37:54;100253.56;;;11.63;100.00
55077;BME280;40971;44.702;11.030;2022-11-04T07:40:19;100251.34;;;11.57;100.00
55077;BME280;40971;44.702;11.030;2022-11-04T07:42:45;100204.53;;;11.39;100.00
55077;BME280;40971;44.702;11.030;2022-11-04T07:45:10;100270.88;;;11.78;100.00
55077;BME280;40971;44.702;11.030;2022-11-04T07:47:36;100271.22;;;11.86;100.00
55077;BME280;40971;44.702;11.030;2022-11-04T07:50:01;100277.44;;;11.98;100.00
55077;BME280;40971;44.702;11.030;2022-11-04T07:52:26;100275.13;;;12.06;100.00
55077;BME280;40971;44.702;11.030;2022-11-04T07:54:52;100283.41;;;12.00;100.00
55077;BME280;40971;44.702;11.030;2022-11-04T07:57:17;100281.44;;;12.16;100.00
55077;BME280;40971;44.702;11.030;2022-11-04T07:59:43;100247.50;;;12.15;100.00
55077;BME280;40971;44.702;11.030;2022-11-04T08:02:09;100263.84;;;12.18;100.00
55077;BME280;40971;44.702;11.030;2022-11-04T08:04:35;100237.88;;;12.28;100.00
55077;BME280;40971;44.702;11.030;2022-11-04T08:07:01;100276.28;;;12.65;100.00
55077;BME280;40971;44.702;11.030;2022-11-04T08:09:26;100285.38;;;12.73;100.00
55077;BME280;40971;44.702;11.030;2022-11-04T08:11:52;100281.47;;;12.91;100.00
55077;BME280;40971;44.702;11.030;2022-11-04T08:14:17;100310.50;;;13.01;100.00
55077;BME280;40971;44.702;11.030;2022-11-04T08:16:43;100282.47;;;12.77;100.00
55077;BME280;40971;44.702;11.030;2022-11-04T08:19:08;100292.53;;;13.07;100.00
55077;BME280;40971;44.702;11.030;2022-11-04T08:21:34;100275.69;;;12.99;100.00
55077;BME280;40971;44.702;11.030;2022-11-04T08:24:00;100274.88;;;12.98;100.00
55077;BME280;40971;44.702;11.030;2022-11-04T08:26:28;100270.25;;;13.02;100.00
55077;BME280;40971;44.702;11.030;2022-11-04T08:28:53;100265.19;;;13.11;100.00
55077;BME280;40971;44.702;11.030;2022-11-04T08:31:26;100263.91;;;13.17;100.00
55077;BME280;40971;44.702;11.030;2022-11-04T08:33:53;100271.31;;;13.36;100.00
55077;BME280;40971;44.702;11.030;2022-11-04T08:36:25;100266.28;;;13.33;100.00
55077;BME280;40971;44.702;11.030;2022-11-04T08:38:52;100252.28;;;13.45;100.00
55077;BME280;40971;44.702;11.030;2022-11-04T08:41:21;100256.78;;;13.43;100.00
55077;BME280;40971;44.702;11.030;2022-11-04T08:43:47;100247.88;;;13.45;100.00
55077;BME280;40971;44.702;11.030;2022-11-04T08:46:14;100241.03;;;13.43;100.00
55077;BME280;40971;44.702;11.030;2022-11-04T08:48:41;100233.69;;;13.48;100.00
55077;BME280;40971;44.702;11.030;2022-11-04T08:51:33;100231.69;;;13.51;100.00
55077;BME280;40971;44.702;11.030;2022-11-04T08:54:00;100220.47;;;13.49;100.00
55077;BME280;40971;44.702;11.030;2022-11-04T08:56:29;100225.13;;;13.57;100.00
55077;BME280;40971;44.702;11.030;2022-11-04T08:58:56;100191.97;;;13.45;100.00
55077;BME280;40971;44.702;11.030;2022-11-04T09:01:23;100172.13;;;13.41;100.00
55077;BME280;40971;44.702;11.030;2022-11-04T09:03:49;100195.66;;;13.53;100.00
55077;BME280;40971;44.702;11.030;2022-11-04T09:06:24;100218.38;;;13.77;100.00
55077;BME280;40971;44.702;11.030;2022-11-04T09:08:50;100223.88;;;13.74;100.00
55077;BME280;40971;44.702;11.030;2022-11-04T09:11:16;100223.44;;;13.80;100.00
55077;BME280;40971;44.702;11.030;2022-11-04T09:13:42;100234.75;;;13.80;100.00
55077;BME280;40971;44.702;11.030;2022-11-04T09:16:11;100214.69;;;13.68;100.00
55077;BME280;40971;44.702;11.030;2022-11-04T09:18:37;100226.78;;;13.82;100.00
55077;BME280;40971;44.702;11.030;2022-11-04T09:21:04;100238.34;;;13.91;100.00
55077;BME280;40971;44.702;11.030;2022-11-04T09:23:30;100163.63;;;13.61;100.00
55077;BME280;40971;44.702;11.030;2022-11-04T09:25:57;100250.09;;;14.09;100.00
55077;BME280;40971;44.702;11.030;2022-11-04T09:28:24;100171.38;;;13.74;100.00
55077;BME280;40971;44.702;11.030;2022-11-04T09:30:50;100228.63;;;14.15;100.00
55077;BME280;40971;44.702;11.030;2022-11-04T09:33:16;100213.31;;;14.09;100.00
55077;BME280;40971;44.702;11.030;2022-11-04T09:35:41;100226.25;;;14.12;99.01
55077;BME280;40971;44.702;11.030;2022-11-04T09:38:07;100194.22;;;13.96;100.00
55077;BME280;40971;44.702;11.030;2022-11-04T09:40:34;100227.56;;;14.29;100.00
55077;BME280;40971;44.702;11.030;2022-11-04T09:45:42;100214.19;;;14.32;99.27
55077;BME280;40971;44.702;11.030;2022-11-04T09:48:13;100196.41;;;14.35;100.00
55077;BME280;40971;44.702;11.030;2022-11-04T09:50:47;100175.88;;;14.18;91.73
55077;BME280;40971;44.702;11.030;2022-11-04T09:53:21;100217.06;;;14.40;95.08
55077;BME280;40971;44.702;11.030;2022-11-04T09:55:55;100203.66;;;14.43;92.36
55077;BME280;40971;44.702;11.030;2022-11-04T09:58:21;100211.72;;;14.53;91.98
55077;BME280;40971;44.702;11.030;2022-11-04T10:23:22;100196.91;;;14.52;86.19
55077;BME280;40971;44.702;11.030;2022-11-04T10:28:43;100199.88;;;14.58;85.97
55077;BME280;40971;44.702;11.030;2022-11-04T10:31:15;100195.41;;;14.92;85.07
55077;BME280;40971;44.702;11.030;2022-11-04T10:33:49;100188.31;;;15.15;84.28
55077;BME280;40971;44.702;11.030;2022-11-04T10:36:16;100190.75;;;15.28;79.53
55077;BME280;40971;44.702;11.030;2022-11-04T10:43:46;100170.88;;;15.56;80.55
55077;BME280;40971;44.702;11.030;2022-11-04T10:49:33;100155.44;;;15.83;77.76
55077;BME280;40971;44.702;11.030;2022-11-04T10:52:01;100166.94;;;15.82;70.75
55077;BME280;40971;44.702;11.030;2022-11-04T10:54:26;100151.97;;;15.83;73.83
55077;BME280;40971;44.702;11.030;2022-11-04T10:56:54;100139.94;;;15.90;70.47
55077;BME280;40971;44.702;11.030;2022-11-04T10:59:25;100155.41;;;16.04;69.56
55077;BME280;40971;44.702;11.030;2022-11-04T11:01:59;100138.84;;;16.13;69.56
55077;BME280;40971;44.702;11.030;2022-11-04T11:04:31;100143.56;;;16.19;68.42
55077;BME280;40971;44.702;11.030;2022-11-04T11:07:00;100141.22;;;16.26;70.58
55077;BME280;40971;44.702;11.030;2022-11-04T11:09:28;100126.94;;;16.29;69.35
55077;BME280;40971;44.702;11.030;2022-11-04T11:14:41;100069.50;;;16.13;68.22
55077;BME280;40971;44.702;11.030;2022-11-04T11:19:52;100093.00;;;16.35;64.70
55077;BME280;40971;44.702;11.030;2022-11-04T11:33:32;100124.91;;;16.82;58.07
55077;BME280;40971;44.702;11.030;2022-11-04T11:36:07;100101.41;;;16.69;57.05
55077;BME280;40971;44.702;11.030;2022-11-04T11:38:38;100137.66;;;16.96;59.00
55077;BME280;40971;44.702;11.030;2022-11-04T11:41:21;100143.78;;;17.06;57.55
55077;BME280;40971;44.702;11.030;2022-11-04T11:43:54;100134.63;;;17.20;58.95
55077;BME280;40971;44.702;11.030;2022-11-04T11:46:22;100132.69;;;17.32;59.55
55077;BME280;40971;44.702;11.030;2022-11-04T11:48:53;100120.72;;;17.47;61.12
55077;BME280;40971;44.702;11.030;2022-11-04T11:51:32;100120.72;;;17.47;60.11
55077;BME280;40971;44.702;11.030;2022-11-04T11:56:56;100059.63;;;17.23;55.92
55077;BME280;40971;44.702;11.030;2022-11-04T12:00:00;100110.25;;;17.65;55.81
55077;BME280;40971;44.702;11.030;2022-11-04T12:05:00;100058.88;;;17.50;56.68
55077;BME280;40971;44.702;11.030;2022-11-04T12:15:42;100072.56;;;17.82;54.96
55077;BME280;40971;44.702;11.030;2022-11-04T12:21:10;100061.78;;;17.93;50.63
55077;BME280;40971;44.702;11.030;2022-11-04T12:26:32;100061.97;;;18.19;51.99
55077;BME280;40971;44.702;11.030;2022-11-04T12:31:41;100055.53;;;18.22;49.78
55077;BME280;40971;44.702;11.030;2022-11-04T12:37:23;100053.53;;;18.33;49.79
55077;BME280;40971;44.702;11.030;2022-11-04T12:45:41;100062.00;;;18.65;47.74
55077;BME280;40971;44.702;11.030;2022-11-04T12:48:10;100050.09;;;18.51;47.82
55077;BME280;40971;44.702;11.030;2022-11-04T12:51:04;100065.75;;;18.80;47.62
55077;BME280;40971;44.702;11.030;2022-11-04T12:56:13;100068.09;;;19.01;47.69
55077;BME280;40971;44.702;11.030;2022-11-04T13:01:29;100048.06;;;18.80;47.56
55077;BME280;40971;44.702;11.030;2022-11-04T13:04:22;100063.03;;;18.89;46.94
55077;BME280;40971;44.702;11.030;2022-11-04T13:06:57;100079.94;;;19.14;45.01
55077;BME280;40971;44.702;11.030;2022-11-04T13:11:56;100065.47;;;19.27;48.79
55077;BME280;40971;44.702;11.030;2022-11-04T13:14:28;100068.75;;;19.46;49.15
55077;BME280;40971;44.702;11.030;2022-11-04T13:17:02;100040.66;;;19.28;48.46
55077;BME280;40971;44.702;11.030;2022-11-04T13:19:55;100058.75;;;19.32;47.23
55077;BME280;40971;44.702;11.030;2022-11-04T13:22:29;100065.63;;;19.25;49.04
55077;BME280;40971;44.702;11.030;2022-11-04T13:25:00;100068.44;;;19.23;48.17
55077;BME280;40971;44.702;11.030;2022-11-04T13:27:35;100058.19;;;19.03;46.44
55077;BME280;40971;44.702;11.030;2022-11-04T13:30:14;100060.34;;;19.25;48.85
55077;BME280;40971;44.702;11.030;2022-11-04T13:35:22;100054.91;;;19.09;47.06
55077;BME280;40971;44.702;11.030;2022-11-04T13:40:31;99995.97;;;18.99;47.93
55077;BME280;40971;44.702;11.030;2022-11-04T13:43:10;100046.03;;;18.92;48.91
55077;BME280;40971;44.702;11.030;2022-11-04T13:45:58;100021.75;;;18.79;48.48
55077;BME280;40971;44.702;11.030;2022-11-04T13:48:30;100028.72;;;18.80;48.81
55077;BME280;40971;44.702;11.030;2022-11-04T13:51:14;100019.06;;;18.71;48.40
55077;BME280;40971;44.702;11.030;2022-11-04T13:53:54;99983.50;;;18.20;45.19
55077;BME280;40971;44.702;11.030;2022-11-04T13:56:37;100034.38;;;18.49;49.20
55077;BME280;40971;44.702;11.030;2022-11-04T14:01:41;100002.25;;;18.44;49.47
55077;BME280;40971;44.702;11.030;2022-11-04T14:04:17;100029.44;;;18.37;47.93
55077;BME280;40971;44.702;11.030;2022-11-04T14:06:58;100023.63;;;18.06;51.73
55077;BME280;40971;44.702;11.030;2022-11-04T14:14:52;100008.28;;;17.91;50.51
55077;BME280;40971;44.702;11.030;2022-11-04T14:25:36;100009.59;;;17.78;48.46
55077;BME280;40971;44.702;11.030;2022-11-04T14:30:41;100001.72;;;17.58;50.83
55077;BME280;40971;44.702;11.030;2022-11-04T14:33:30;100003.94;;;17.72;48.49
55077;BME280;40971;44.702;11.030;2022-11-04T14:46:41;100037.09;;;17.28;50.01
55077;BME280;40971;44.702;11.030;2022-11-04T14:49:31;99971.63;;;16.95;47.59
55077;BME280;40971;44.702;11.030;2022-11-04T14:52:00;99995.22;;;16.96;49.53
55077;BME280;40971;44.702;11.030;2022-11-04T14:54:29;100044.38;;;17.17;49.03
55077;BME280;40971;44.702;11.030;2022-11-04T14:57:13;100050.63;;;17.16;48.22
55077;BME280;40971;44.702;11.030;2022-11-04T14:59:39;100056.97;;;17.23;49.21
55077;BME280;40971;44.702;11.030;2022-11-04T15:02:15;100009.66;;;16.92;49.30
55077;BME280;40971;44.702;11.030;2022-11-04T15:04:49;100041.75;;;16.97;50.64
55077;BME280;40971;44.702;11.030;2022-11-04T15:09:57;100066.75;;;16.83;50.87
55077;BME280;40971;44.702;11.030;2022-11-04T15:12:23;100047.59;;;16.81;50.42
55077;BME280;40971;44.702;11.030;2022-11-04T15:15:38;100052.97;;;16.90;47.75
55077;BME280;40971;44.702;11.030;2022-11-04T15:18:16;100051.31;;;16.79;51.71
55077;BME280;40971;44.702;11.030;2022-11-04T15:20:55;99966.31;;;16.08;53.04
55077;BME280;40971;44.702;11.030;2022-11-04T15:23:43;100046.22;;;16.28;55.70
55077;BME280;40971;44.702;11.030;2022-11-04T15:28:53;100055.84;;;16.48;53.26
55077;BME280;40971;44.702;11.030;2022-11-04T15:31:24;100045.38;;;16.27;51.17
55077;BME280;40971;44.702;11.030;2022-11-04T15:33:56;100064.41;;;16.31;50.36
55077;BME280;40971;44.702;11.030;2022-11-04T15:36:30;100065.44;;;16.09;51.75
55077;BME280;40971;44.702;11.030;2022-11-04T15:39:04;100080.00;;;16.03;56.29
55077;BME280;40971;44.702;11.030;2022-11-04T15:41:32;100065.38;;;15.80;57.24
55077;BME280;40971;44.702;11.030;2022-11-04T15:44:25;100075.34;;;15.86;56.73
55077;BME280;40971;44.702;11.030;2022-11-04T15:46:55;100074.47;;;15.76;56.82
55077;BME280;40971;44.702;11.030;2022-11-04T15:49:29;100042.59;;;15.27;55.31
55077;BME280;40971;44.702;11.030;2022-11-04T15:52:06;100098.22;;;15.23;62.09
55077;BME280;40971;44.702;11.030;2022-11-04T15:54:35;100090.88;;;14.85;62.02
55077;BME280;40971;44.702;11.030;2022-11-04T15:57:24;100093.94;;;14.58;62.01